Time;durP1;ratioP1;P1;durP2;ratioP2;P2;SDS_P1;SDS_P2;PMS_P1;PMS_P2;Temp;Humidity;BMP_temperature;BMP_pressure;BME280_temperature;BME280_humidity;BME280_pressure;Samples;Min_cycle;Max_cycle;Signal;HPM_P1;HPM_P2
2021/04/21 00:02:50;;;;;;;25.52;16.23;;;;;;;8.08;71.46;99899.32;2127649;81;22418;-73
2021/04/21 00:05:53;;;;;;;32.60;19.90;;;;;;;7.99;71.52;99897.62;2129439;81;21089;-73
2021/04/21 00:08:55;;;;;;;31.42;19.05;;;;;;;7.84;71.60;99900.83;2137180;81;21058;-73
2021/04/21 00:11:57;;;;;;;26.97;17.12;;;;;;;7.73;71.81;99903.72;2137392;81;21120;-74
2021/04/21 00:14:58;;;;;;;24.50;16.27;;;;;;;7.69;71.85;99902.37;2130043;81;21118;-72
2021/04/21 00:18:04;;;;;;;25.30;16.65;;;;;;;7.67;71.94;99907.48;2133660;81;21131;-74
2021/04/21 00:21:07;;;;;;;27.67;17.45;;;;;;;7.71;72.06;99896.93;2129250;81;21139;-72
2021/04/21 00:24:11;;;;;;;27.17;17.35;;;;;;;7.72;71.98;99892.00;2109757;81;21203;-72
2021/04/21 00:27:18;;;;;;;27.40;17.77;;;;;;;7.71;72.06;99887.19;2087046;83;21145;-73
2021/04/21 00:30:26;;;;;;;28.15;19.35;;;;;;;7.69;72.05;99892.31;2089382;83;21192;-74
2021/04/21 00:33:29;;;;;;;28.80;18.90;;;;;;;7.66;71.99;99882.88;2090815;83;21233;-73
2021/04/21 00:36:34;;;;;;;28.98;17.87;;;;;;;7.57;71.90;99896.52;2088229;83;21109;-73
2021/04/21 00:39:42;;;;;;;27.70;16.70;;;;;;;7.49;72.07;99892.95;2090146;83;21236;-73
2021/04/21 00:43:01;;;;;;;31.52;18.75;;;;;;;7.46;72.26;99895.89;2090050;83;21641;-72
2021/04/21 00:46:11;;;;;;;21.60;14.55;;;;;;;7.38;72.20;99890.08;2071220;83;21164;-72
2021/04/21 00:49:23;;;;;;;25.88;15.78;;;;;;;7.34;72.11;99890.84;2090603;83;22683;-74
2021/04/21 00:53:01;;;;;;;34.20;19.17;;;;;;;7.34;72.38;99891.34;2085410;83;21658;-72
2021/04/21 00:56:39;;;;;;;32.42;20.10;;;;;;;7.30;72.21;99891.33;2068260;84;21196;-73
2021/04/21 01:00:04;;;;;;;33.23;20.37;;;;;;;7.22;72.19;99889.92;2088745;83;21133;-74
2021/04/21 01:03:21;;;;;;;34.18;20.40;;;;;;;7.09;72.48;99884.51;2088694;83;21106;-73
2021/04/21 01:06:39;;;;;;;24.63;16.75;;;;;;;7.01;72.72;99885.78;2091465;83;21134;-73
2021/04/21 01:09:47;;;;;;;24.40;15.95;;;;;;;6.95;72.72;99891.63;2089067;83;21164;-74
2021/04/21 01:12:51;;;;;;;22.75;13.95;;;;;;;6.88;72.78;99889.25;2085853;83;21167;-72
2021/04/21 01:15:55;;;;;;;21.27;13.15;;;;;;;6.85;73.04;99889.55;2070176;83;21120;-72
2021/04/21 01:19:18;;;;;;;22.40;13.43;;;;;;;6.79;73.12;99888.34;2091879;83;21179;-71
2021/04/21 01:22:45;;;;;;;24.95;15.53;;;;;;;6.79;73.07;99883.06;2091591;83;21144;-72
2021/04/21 01:26:19;;;;;;;25.77;14.83;;;;;;;6.74;73.23;99889.27;2123215;82;21183;-72
2021/04/21 01:29:40;;;;;;;45.03;25.12;;;;;;;6.67;73.48;99886.40;2116893;82;21180;-73
2021/04/21 01:32:46;;;;;;;29.82;16.93;;;;;;;6.59;73.54;99884.98;2122823;82;21200;-73
2021/04/21 01:36:01;;;;;;;27.45;14.80;;;;;;;6.56;73.62;99883.95;2115628;82;21156;-73
2021/04/21 01:39:06;;;;;;;25.55;16.65;;;;;;;6.47;73.60;99877.73;2116828;82;21536;-74
2021/04/21 01:42:10;;;;;;;37.95;19.98;;;;;;;6.41;73.82;99873.05;2121221;82;21124;-72
2021/04/21 01:45:18;;;;;;;26.17;15.80;;;;;;;6.38;73.86;99871.20;2119430;82;21097;-73
2021/04/21 01:48:23;;;;;;;27.87;18.00;;;;;;;6.33;73.91;99865.03;2117044;82;21580;-75
2021/04/21 01:51:33;;;;;;;25.55;16.87;;;;;;;6.27;74.08;99866.45;2119475;82;21116;-72
2021/04/21 01:54:38;;;;;;;28.70;16.23;;;;;;;6.23;74.14;99874.31;2119497;82;21109;-73
2021/04/21 01:58:04;;;;;;;23.85;14.63;;;;;;;6.14;74.11;99869.92;2115793;82;21171;-72
2021/04/21 02:01:14;;;;;;;22.52;14.40;;;;;;;6.09;74.23;99871.33;2117380;82;21554;-72
2021/04/21 02:04:35;;;;;;;21.68;13.22;;;;;;;6.08;74.30;99869.64;2117881;82;21248;-73
2021/04/21 02:08:13;;;;;;;20.85;13.48;;;;;;;6.04;74.28;99879.64;2092703;82;21227;-72
2021/04/21 02:11:27;;;;;;;19.10;12.90;;;;;;;6.03;74.19;99867.46;2117603;82;21176;-75
2021/04/21 02:14:51;;;;;;;18.52;13.18;;;;;;;5.99;74.20;99867.39;2119466;82;21115;-72
2021/04/21 02:18:18;;;;;;;25.45;14.35;;;;;;;5.97;74.29;99855.70;2121028;82;21143;-74
2021/04/21 02:21:46;;;;;;;20.80;13.90;;;;;;;5.95;74.18;99866.03;2126762;82;21151;-72
2021/04/21 02:25:05;;;;;;;22.10;14.47;;;;;;;5.88;74.20;99869.67;2115212;82;21225;-72
2021/04/21 02:28:38;;;;;;;21.90;13.72;;;;;;;5.82;74.24;99860.53;2116107;82;21128;-73
2021/04/21 02:32:10;;;;;;;19.82;13.15;;;;;;;5.74;74.17;99861.73;2115269;82;21179;-72
2021/04/21 02:35:22;;;;;;;18.05;11.93;;;;;;;5.67;74.13;99858.02;2116443;82;21168;-72
2021/04/21 02:38:47;;;;;;;23.27;15.32;;;;;;;5.63;74.15;99865.83;2091256;82;22446;-75
2021/04/21 02:42:05;;;;;;;26.57;16.42;;;;;;;5.57;74.34;99866.41;1998996;87;21119;-73
2021/04/21 02:45:21;;;;;;;28.32;17.90;;;;;;;5.46;74.70;99861.29;1998801;87;21245;-72
2021/04/21 02:49:10;;;;;;;34.18;20.65;;;;;;;5.36;75.01;99866.08;2117765;82;21163;-74
2021/04/21 02:52:56;;;;;;;27.75;18.37;;;;;;;5.29;75.47;99866.77;2118146;82;21086;-72
2021/04/21 02:56:06;;;;;;;25.75;16.82;;;;;;;5.22;75.45;99867.82;2112500;82;21120;-72
2021/04/21 02:59:22;;;;;;;25.50;16.65;;;;;;;5.16;75.65;99863.12;2119916;82;21116;-72
2021/04/21 03:02:37;;;;;;;26.35;16.67;;;;;;;5.10;75.56;99858.41;2118933;82;21148;-73
2021/04/21 03:05:44;;;;;;;26.97;17.40;;;;;;;5.05;75.69;99857.99;2115099;82;21179;-73
2021/04/21 03:08:49;;;;;;;28.15;18.62;;;;;;;5.06;75.79;99861.78;2111044;81;21758;-74
2021/04/21 03:11:53;;;;;;;29.05;20.23;;;;;;;5.05;75.88;99860.12;2111986;82;21125;-73
2021/04/21 03:15:05;;;;;;;35.40;21.97;;;;;;;5.09;76.19;99860.67;2112032;82;21091;-74
2021/04/21 03:18:09;;;;;;;28.47;20.45;;;;;;;5.11;76.33;99857.44;2122589;82;21557;-72
2021/04/21 03:21:26;;;;;;;29.00;19.95;;;;;;;5.11;76.75;99862.69;2115122;82;21183;-72
2021/04/21 03:24:32;;;;;;;26.50;18.80;;;;;;;5.10;76.84;99857.92;2116938;82;21513;-72
2021/04/21 03:27:38;;;;;;;28.20;19.65;;;;;;;5.10;76.88;99855.78;2118382;82;21152;-74
2021/04/21 03:30:42;;;;;;;31.97;18.73;;;;;;;5.10;77.10;99860.55;2115071;82;21674;-73
2021/04/21 03:33:51;;;;;;;29.92;19.40;;;;;;;5.11;76.91;99854.80;2117557;82;21227;-73
2021/04/21 03:36:54;;;;;;;32.38;20.60;;;;;;;5.17;76.96;99859.51;2115045;82;21115;-72
2021/04/21 03:39:56;;;;;;;33.65;21.37;;;;;;;5.20;77.02;99858.41;2114272;82;21211;-73
2021/04/21 03:42:57;;;;;;;37.10;22.60;;;;;;;5.25;76.97;99862.28;2112801;82;21123;-70
2021/04/21 03:46:00;;;;;;;34.95;21.80;;;;;;;5.32;77.13;99855.97;2125400;82;21129;-71
2021/04/21 03:49:02;;;;;;;31.73;21.17;;;;;;;5.32;76.96;99860.77;2116556;82;21552;-71
2021/04/21 03:52:05;;;;;;;28.35;20.20;;;;;;;5.36;77.19;99861.31;2112943;82;21128;-71
2021/04/21 03:55:10;;;;;;;30.77;19.80;;;;;;;5.36;77.37;99856.05;2112528;82;21152;-72
2021/04/21 03:58:16;;;;;;;29.23;20.43;;;;;;;5.39;77.53;99855.28;2123862;82;21518;-72
2021/04/21 04:01:25;;;;;;;28.98;18.25;;;;;;;5.42;77.63;99851.53;2118229;82;23010;-72
2021/04/21 04:04:31;;;;;;;28.47;18.32;;;;;;;5.52;77.60;99851.52;2114815;82;21172;-72
2021/04/21 04:07:37;;;;;;;38.55;22.77;;;;;;;5.59;77.58;99854.77;2115751;82;21145;-73
2021/04/21 04:10:45;;;;;;;32.35;22.22;;;;;;;5.69;77.62;99850.81;2116381;82;21139;-72
2021/04/21 04:13:50;;;;;;;33.78;22.20;;;;;;;5.85;77.71;99854.16;2117010;82;21147;-72
2021/04/21 04:16:54;;;;;;;36.25;22.62;;;;;;;6.09;77.82;99853.71;2114648;82;21569;-71
2021/04/21 04:19:59;;;;;;;33.53;21.62;;;;;;;6.19;77.44;99853.16;2115400;82;21211;-71
2021/04/21 04:23:07;;;;;;;36.50;21.62;;;;;;;6.28;77.34;99856.27;2116297;82;21124;-70
2021/04/21 04:26:09;;;;;;;30.43;21.25;;;;;;;6.32;77.32;99852.84;2123387;82;21136;-70
2021/04/21 04:29:11;;;;;;;35.80;21.97;;;;;;;6.36;77.29;99852.88;2120417;82;21623;-73
2021/04/21 04:32:20;;;;;;;31.48;19.45;;;;;;;6.44;77.38;99849.52;2116486;82;21116;-71
2021/04/21 04:35:21;;;;;;;33.05;20.20;;;;;;;6.47;77.20;99861.91;2125108;82;21100;-72
2021/04/21 04:38:23;;;;;;;29.85;20.97;;;;;;;6.53;77.29;99865.77;2118307;82;21147;-72
2021/04/21 04:41:28;;;;;;;34.33;21.95;;;;;;;6.59;77.25;99867.84;2119114;82;21667;-71
2021/04/21 04:44:29;;;;;;;30.68;21.70;;;;;;;6.67;77.28;99867.09;2112642;82;21184;-72
2021/04/21 04:47:39;;;;;;;33.98;20.15;;;;;;;6.70;77.23;99866.33;2118907;82;21117;-72
2021/04/21 04:50:42;;;;;;;32.38;19.70;;;;;;;6.75;77.39;99867.18;2119341;82;21144;-71
2021/04/21 04:53:45;;;;;;;31.27;20.25;;;;;;;6.82;77.29;99864.30;2095155;82;21196;-73
2021/04/21 04:56:49;;;;;;;34.20;22.62;;;;;;;6.85;77.37;99869.77;2122748;82;21180;-74
2021/04/21 04:59:50;;;;;;;30.10;19.52;;;;;;;6.92;77.43;99869.50;2120214;82;21199;-71
2021/04/21 05:02:57;;;;;;;39.20;20.90;;;;;;;7.03;77.43;99874.56;2119557;82;21536;-70
2021/04/21 05:06:00;;;;;;;35.40;20.72;;;;;;;7.16;77.39;99870.25;2115145;82;21120;-70
2021/04/21 05:09:04;;;;;;;32.75;21.20;;;;;;;7.23;77.26;99871.78;2120685;82;21097;-71
2021/04/21 05:12:12;;;;;;;34.85;22.55;;;;;;;7.25;77.22;99871.97;2118906;82;21516;-71
2021/04/21 05:15:36;;;;;;;37.90;22.80;;;;;;;7.32;77.23;99869.08;2117380;82;22043;-70
2021/04/21 05:19:06;;;;;;;31.50;21.85;;;;;;;7.39;77.22;99866.66;2094644;82;21188;-71
2021/04/21 05:22:19;;;;;;;27.80;20.30;;;;;;;7.43;77.06;99869.31;2114096;82;21120;-69
2021/04/21 05:25:55;;;;;;;29.90;19.32;;;;;;;7.54;77.17;99865.61;2116806;82;21136;-71
2021/04/21 05:29:21;;;;;;;31.82;20.27;;;;;;;7.63;77.14;99869.98;2116323;82;21256;-71
2021/04/21 05:33:00;;;;;;;31.42;21.95;;;;;;;7.70;77.05;99862.27;2116627;82;21117;-69
2021/04/21 05:36:37;;;;;;;32.73;21.73;;;;;;;7.78;76.96;99864.97;2114740;82;21172;-68
2021/04/21 05:40:13;;;;;;;32.13;22.55;;;;;;;7.82;76.82;99864.98;2110164;82;21187;-71
2021/04/21 05:43:42;;;;;;;30.17;21.20;;;;;;;8.28;77.33;99866.42;2117610;82;21219;-71
2021/04/21 05:47:15;;;;;;;29.87;20.08;;;;;;;9.03;77.32;99872.30;2117329;82;21179;-70
2021/04/21 05:50:51;;;;;;;27.80;18.80;;;;;;;9.76;76.41;99872.83;2116310;82;21176;-71
2021/04/21 05:54:24;;;;;;;28.75;20.27;;;;;;;10.36;75.35;99876.03;2125080;82;21116;-71
2021/04/21 05:57:50;;;;;;;32.83;20.43;;;;;;;10.87;74.68;99871.16;2119528;82;21128;-72
2021/04/21 06:01:23;;;;;;;29.30;19.00;;;;;;;11.41;74.52;99871.15;2114632;82;21095;-70
2021/04/21 06:04:24;;;;;;;35.43;20.90;;;;;;;11.96;73.57;99876.65;2122544;82;21112;-70
2021/04/21 06:07:26;;;;;;;26.27;17.90;;;;;;;12.15;72.47;99881.13;2110237;82;21104;-70
2021/04/21 06:10:29;;;;;;;25.85;19.02;;;;;;;11.84;71.40;99885.55;2113264;82;21128;-71
2021/04/21 06:13:33;;;;;;;30.23;19.20;;;;;;;11.54;70.99;99881.16;2120767;82;21155;-70
2021/04/21 06:16:36;;;;;;;34.63;18.98;;;;;;;11.35;71.12;99881.16;2111887;82;21282;-70
2021/04/21 06:19:38;;;;;;;26.45;17.27;;;;;;;12.24;71.06;99876.03;2114747;82;21100;-71
2021/04/21 06:22:39;;;;;;;25.85;16.75;;;;;;;12.53;70.50;99853.92;2144664;81;21112;-71
2021/04/21 06:25:44;;;;;;;22.45;14.38;;;;;;;12.53;70.50;99853.92;2115639;82;21148;-71
2021/04/21 06:29:03;;;;;;;28.32;16.30;;;;;;;13.08;69.43;99875.63;2117677;82;21130;-71
2021/04/21 06:32:12;;;;;;;25.30;16.85;;;;;;;13.32;69.10;99878.45;2114256;82;21707;-72
2021/04/21 06:35:12;;;;;;;22.73;15.75;;;;;;;13.44;68.48;99871.10;2111914;82;21580;-71
2021/04/21 06:38:14;;;;;;;26.62;16.80;;;;;;;13.59;67.75;99873.69;2121187;82;21124;-71
2021/04/21 06:41:15;;;;;;;22.25;14.85;;;;;;;13.73;67.01;99874.62;2117815;82;21184;-71
2021/04/21 06:44:17;;;;;;;26.30;15.03;;;;;;;13.84;66.52;99872.76;2114655;82;21132;-71
2021/04/21 06:47:22;;;;;;;23.67;14.60;;;;;;;13.90;66.10;99869.31;2100249;82;21655;-70
2021/04/21 06:50:30;;;;;;;22.32;14.90;;;;;;;14.08;65.08;99866.68;2129762;82;21211;-72
2021/04/21 06:53:32;;;;;;;25.05;14.90;;;;;;;14.24;62.52;99862.34;2123105;82;21129;-71
2021/04/21 06:56:36;;;;;;;25.15;15.00;;;;;;;14.28;63.89;99867.61;2117485;82;21532;-71
2021/04/21 06:59:37;;;;;;;23.98;14.25;;;;;;;14.49;63.54;99860.01;2112286;82;21176;-71
2021/04/21 07:02:50;;;;;;;19.30;13.80;;;;;;;14.65;62.51;99860.73;2121210;82;21132;-70
2021/04/21 07:05:52;;;;;;;19.67;14.78;;;;;;;14.32;62.63;99867.52;2123414;82;21065;-71
2021/04/21 07:08:53;;;;;;;22.00;15.48;;;;;;;14.10;62.42;99865.95;2119174;82;21514;-71
2021/04/21 07:12:02;;;;;;;19.00;13.75;;;;;;;14.34;63.31;99862.81;2118745;82;21135;-71
2021/04/21 07:15:05;;;;;;;19.45;14.00;;;;;;;14.61;62.86;99859.47;2112893;82;21228;-71
2021/04/21 07:18:11;;;;;;;20.92;14.43;;;;;;;14.91;62.26;99865.34;2117261;82;21076;-72
2021/04/21 07:21:13;;;;;;;17.27;13.72;;;;;;;14.80;61.14;99866.22;2123162;82;21172;-71
2021/04/21 07:24:17;;;;;;;19.52;14.63;;;;;;;14.29;61.01;99865.77;2122920;82;21203;-72
2021/04/21 07:27:21;;;;;;;18.65;13.70;;;;;;;13.92;61.77;99866.98;2132837;82;21531;-71
2021/04/21 07:30:29;;;;;;;20.30;14.68;;;;;;;14.01;61.71;99863.13;2134754;81;21110;-71
2021/04/21 07:33:37;;;;;;;19.87;14.60;;;;;;;14.29;61.77;99863.09;2136103;81;21096;-71
2021/04/21 07:36:48;;;;;;;20.72;14.60;;;;;;;14.56;62.08;99871.59;2125463;81;21089;-71
2021/04/21 07:39:49;;;;;;;19.40;15.28;;;;;;;14.89;61.82;99865.53;2145270;81;21584;-71
2021/04/21 07:43:06;;;;;;;18.52;13.10;;;;;;;15.18;61.59;99865.72;2136466;81;21557;-71
2021/04/21 07:46:15;;;;;;;18.35;13.38;;;;;;;15.31;60.41;99871.58;2136506;81;21532;-72
2021/04/21 07:49:22;;;;;;;18.80;13.83;;;;;;;15.32;60.31;99870.58;2130193;81;21199;-71
2021/04/21 07:52:33;;;;;;;18.35;12.93;;;;;;;15.54;60.37;99859.67;2137613;81;21464;-70
2021/04/21 07:55:35;;;;;;;22.15;13.68;;;;;;;15.90;59.53;99863.30;2129742;81;21506;-71
2021/04/21 07:58:36;;;;;;;21.95;14.43;;;;;;;16.06;59.46;99865.55;2126503;81;21203;-71
2021/04/21 08:01:38;;;;;;;19.10;13.48;;;;;;;16.33;59.37;99868.99;2139775;81;21108;-71
2021/04/21 08:04:55;;;;;;;17.12;13.38;;;;;;;16.57;58.96;99859.42;2131290;81;21120;-71
2021/04/21 08:08:01;;;;;;;17.23;12.73;;;;;;;16.82;58.79;99864.62;2114677;81;21467;-69
2021/04/21 08:11:06;;;;;;;21.87;12.13;;;;;;;17.15;58.50;99862.58;2133763;81;21047;-70
2021/04/21 08:14:07;;;;;;;16.05;11.75;;;;;;;17.45;57.76;99864.09;2134365;81;21100;-70
2021/04/21 08:17:10;;;;;;;17.37;11.18;;;;;;;17.48;56.59;99866.87;2133663;81;21135;-71
2021/04/21 08:20:13;;;;;;;20.10;13.08;;;;;;;17.57;56.84;99863.39;2136572;81;21105;-71
2021/04/21 08:23:24;;;;;;;15.55;11.20;;;;;;;17.66;56.61;99858.08;2136146;81;22347;-71
2021/04/21 08:26:26;;;;;;;22.22;11.90;;;;;;;17.91;55.72;99864.28;2124118;81;21559;-71
2021/04/21 08:29:27;;;;;;;18.87;12.03;;;;;;;18.23;55.94;99850.73;2116985;82;21132;-70
2021/04/21 08:32:28;;;;;;;16.60;11.28;;;;;;;18.27;54.99;99862.69;2114562;82;21369;-71
2021/04/21 08:35:30;;;;;;;14.80;10.65;;;;;;;18.47;54.68;99865.65;2112054;82;21120;-70
2021/04/21 08:38:32;;;;;;;17.67;10.50;;;;;;;18.49;54.29;99864.38;2084044;83;21172;-71
2021/04/21 08:41:37;;;;;;;14.13;10.10;;;;;;;18.38;52.63;99861.91;2082248;83;21184;-71
2021/04/21 08:44:41;;;;;;;14.75;11.30;;;;;;;18.33;53.02;99861.80;2117482;82;21188;-72
2021/04/21 08:47:45;;;;;;;18.07;12.33;;;;;;;18.45;53.56;99867.23;2117727;82;21183;-71
2021/04/21 08:50:47;;;;;;;14.28;10.88;;;;;;;18.65;53.37;99863.49;2118703;82;21988;-70
2021/04/21 08:53:54;;;;;;;15.43;10.82;;;;;;;18.91;53.21;99856.97;2114059;82;21109;-71
2021/04/21 08:56:57;;;;;;;14.07;10.48;;;;;;;19.12;52.93;99863.70;2111332;82;21592;-71
2021/04/21 08:59:59;;;;;;;16.23;11.00;;;;;;;19.30;51.90;99862.30;2117459;82;21564;-71
2021/04/21 09:03:01;;;;;;;15.53;9.80;;;;;;;19.31;51.91;99861.78;2114394;82;21126;-71
2021/04/21 09:06:05;;;;;;;14.85;9.43;;;;;;;19.31;50.55;99855.05;2119112;82;21132;-71
2021/04/21 09:09:07;;;;;;;14.87;9.13;;;;;;;19.24;50.22;99859.20;2114551;82;21160;-71
2021/04/21 09:12:09;;;;;;;11.18;8.75;;;;;;;19.09;50.18;99860.97;2115288;82;21175;-71
2021/04/21 09:15:13;;;;;;;13.05;8.13;;;;;;;18.96;49.30;99861.15;2119543;82;21101;-70
2021/04/21 09:18:18;;;;;;;12.43;8.35;;;;;;;18.88;47.87;99850.71;2118217;82;21159;-70
2021/04/21 09:21:26;;;;;;;11.60;9.25;;;;;;;18.96;48.42;99857.12;2111565;82;21184;-70
2021/04/21 09:24:28;;;;;;;12.65;7.97;;;;;;;18.71;46.29;99848.61;2115853;82;22299;-71
2021/04/21 09:27:36;;;;;;;12.55;6.80;;;;;;;18.59;45.75;99857.16;2118556;82;21533;-71
2021/04/21 09:30:39;;;;;;;8.63;6.30;;;;;;;18.47;46.01;99850.38;2115920;82;21129;-70
2021/04/21 09:33:41;;;;;;;13.40;6.90;;;;;;;18.30;45.50;99847.47;2111768;82;21191;-70
2021/04/21 09:36:46;;;;;;;13.05;6.65;;;;;;;18.30;45.90;99846.13;2113744;82;21195;-70
2021/04/21 09:39:48;;;;;;;11.85;7.03;;;;;;;18.43;45.25;99853.72;2093186;82;21112;-70
2021/04/21 09:42:55;;;;;;;10.08;7.37;;;;;;;18.50;46.25;99846.39;2114673;82;21116;-70
2021/04/21 09:46:01;;;;;;;13.83;7.15;;;;;;;18.69;45.68;99841.30;2118541;82;21608;-71
2021/04/21 09:49:02;;;;;;;11.48;6.53;;;;;;;18.53;43.15;99837.38;2120421;82;21202;-70
2021/04/21 09:52:24;;;;;;;13.95;7.10;;;;;;;18.47;43.64;99838.78;2117052;82;21710;-70
2021/04/21 09:55:31;;;;;;;10.00;7.05;;;;;;;18.51;43.61;99837.30;2112826;82;21175;-71
2021/04/21 09:58:38;;;;;;;10.75;7.08;;;;;;;18.58;45.08;99834.84;2118423;82;21192;-70
2021/04/21 10:01:40;;;;;;;11.08;6.50;;;;;;;18.58;44.58;99844.25;2114050;82;21120;-71
2021/04/21 10:04:42;;;;;;;11.38;6.42;;;;;;;18.70;44.42;99839.45;2117197;82;22623;-70
2021/04/21 10:07:44;;;;;;;10.82;7.45;;;;;;;18.69;43.31;99834.58;2111192;82;21148;-70
2021/04/21 10:11:02;;;;;;;13.05;7.25;;;;;;;18.66;43.00;99832.34;2119883;82;21202;-71
2021/04/21 10:14:03;;;;;;;11.97;6.78;;;;;;;18.55;43.97;99825.86;2116383;82;21707;-71
2021/04/21 10:17:06;;;;;;;12.47;6.92;;;;;;;18.59;44.49;99826.25;2112366;82;21159;-72
2021/04/21 10:20:12;;;;;;;11.45;7.72;;;;;;;18.54;43.71;99820.73;2117039;82;21616;-71
2021/04/21 10:23:13;;;;;;;11.35;6.83;;;;;;;18.54;44.00;99824.77;2112139;82;21081;-70
2021/04/21 10:26:18;;;;;;;10.23;7.22;;;;;;;18.47;43.95;99821.33;2117332;82;21214;-71
2021/04/21 10:29:21;;;;;;;9.98;6.78;;;;;;;18.50;43.17;99816.84;2120908;82;21191;-69
2021/04/21 10:32:23;;;;;;;9.83;6.03;;;;;;;18.51;44.26;99812.59;2123213;81;21132;-72
2021/04/21 10:35:25;;;;;;;10.13;6.33;;;;;;;18.61;43.69;99821.45;2119798;82;21120;-70
2021/04/21 10:38:28;;;;;;;8.50;6.80;;;;;;;18.67;44.13;99808.98;2124737;82;21246;-74
2021/04/21 10:41:44;;;;;;;13.20;6.75;;;;;;;18.75;43.09;99807.34;2121773;82;21148;-74
2021/04/21 10:44:44;;;;;;;;;;;;;;;18.79;42.49;99813.39;2124868;81;21175;-73
2021/04/21 10:47:48;;;;;;;9.88;6.15;;;;;;;18.84;42.79;99809.19;2125001;82;20325;-77
2021/04/21 10:50:50;;;;;;;7.80;6.17;;;;;;;18.91;43.32;99805.90;2117675;81;21594;-82
2021/04/21 10:53:51;;;;;;;10.53;5.72;;;;;;;19.09;43.16;99802.31;2124367;82;21113;-79
2021/04/21 10:56:58;;;;;;;8.58;5.95;;;;;;;19.08;41.47;99802.84;2121632;82;21239;-78
2021/04/21 11:00:12;;;;;;;8.40;6.37;;;;;;;19.02;42.17;99805.11;2109448;81;21542;-77
2021/04/21 11:03:28;;;;;;;9.23;6.22;;;;;;;19.01;41.23;99802.95;2121858;82;21223;-77
2021/04/21 11:06:48;;;;;;;12.37;5.67;;;;;;;19.02;42.85;99805.93;2121004;82;21491;-77
2021/04/21 11:09:58;;;;;;;9.13;5.97;;;;;;;19.05;41.82;99801.97;2124736;82;21191;-80
2021/04/21 11:13:00;;;;;;;8.68;5.90;;;;;;;19.11;41.80;99792.97;2122829;82;21493;-77
2021/04/21 11:16:06;;;;;;;9.45;5.80;;;;;;;19.24;40.11;99793.30;2126613;82;21523;-76
2021/04/21 11:19:26;;;;;;;8.75;5.90;;;;;;;19.22;41.25;99790.83;2121984;82;21125;-82
2021/04/21 11:22:29;;;;;;;8.73;5.40;;;;;;;19.25;40.88;99786.86;2121898;82;21198;-78
2021/04/21 11:25:30;;;;;;;8.28;5.42;;;;;;;19.10;40.94;99801.28;2116118;82;21163;-77
2021/04/21 11:29:03;;;;;;;13.32;5.75;;;;;;;18.72;40.65;99791.12;2090984;83;21179;-80
2021/04/21 11:32:08;;;;;;;11.78;6.25;;;;;;;18.43;41.02;99781.20;2088756;83;21212;-77
2021/04/21 11:35:31;;;;;;;10.35;5.72;;;;;;;18.05;42.26;99784.44;2088679;83;21156;-77
2021/04/21 11:38:42;;;;;;;10.50;5.75;;;;;;;17.72;42.00;99793.33;2090869;83;21184;-77
2021/04/21 11:41:48;;;;;;;8.18;5.42;;;;;;;17.41;42.58;99794.52;2086411;83;21108;-83
2021/04/21 11:45:16;;;;;;;8.60;5.55;;;;;;;17.35;42.02;99792.72;2089416;83;21116;-77
2021/04/21 11:48:20;;;;;;;11.50;6.00;;;;;;;17.24;42.73;99794.24;2102666;83;21557;-77
2021/04/21 11:51:22;;;;;;;7.65;5.33;;;;;;;17.43;43.77;99797.00;2090174;83;21652;-81
2021/04/21 11:54:23;;;;;;;11.50;5.03;;;;;;;17.73;43.65;99792.27;2085592;83;21144;-78
2021/04/21 11:57:24;;;;;;;11.25;5.42;;;;;;;17.96;42.86;99793.00;2090451;83;21093;-83
2021/04/21 12:00:30;;;;;;;8.88;5.50;;;;;;;18.04;42.49;99792.70;2086443;83;21707;-78
2021/04/21 12:03:39;;;;;;;10.53;5.67;;;;;;;18.10;42.09;99787.78;2087470;83;21156;-83
2021/04/21 12:06:41;;;;;;;12.95;5.55;;;;;;;18.02;41.73;99792.94;2087161;83;21176;-78
2021/04/21 12:09:44;;;;;;;9.60;6.00;;;;;;;17.86;42.25;99788.97;2091356;83;21509;-78
2021/04/21 12:12:45;;;;;;;7.40;5.20;;;;;;;17.77;42.35;99791.62;2086828;83;21741;-76
2021/04/21 12:15:53;;;;;;;9.60;4.83;;;;;;;17.70;42.03;99788.17;2088041;83;21156;-73
2021/04/21 12:18:58;;;;;;;9.68;5.30;;;;;;;17.77;41.79;99780.89;2088415;83;21188;-77
2021/04/21 12:22:00;;;;;;;11.40;5.83;;;;;;;17.63;42.08;99782.88;2087753;83;21145;-75
2021/04/21 12:25:07;;;;;;;7.10;5.42;;;;;;;17.59;42.09;99772.80;2090504;83;21183;-75
2021/04/21 12:28:09;;;;;;;7.87;4.97;;;;;;;17.47;41.99;99770.84;2086463;83;21200;-76
2021/04/21 12:31:10;;;;;;;8.45;5.20;;;;;;;17.57;42.04;99764.14;2089496;83;21160;-74
2021/04/21 12:34:24;;;;;;;8.88;5.28;;;;;;;17.72;41.39;99757.11;2090387;83;21169;-74
2021/04/21 12:37:26;;;;;;;10.13;5.20;;;;;;;17.56;41.77;99756.63;2089643;83;21129;-75
2021/04/21 12:40:32;;;;;;;7.75;4.75;;;;;;;17.30;40.74;99764.39;2086690;83;21202;-76
2021/04/21 12:43:35;;;;;;;12.18;5.45;;;;;;;17.31;41.23;99753.95;2087686;83;21561;-74
2021/04/21 12:46:41;;;;;;;8.90;4.87;;;;;;;17.51;41.35;99749.75;2089497;83;21263;-74
2021/04/21 12:49:50;;;;;;;11.35;4.97;;;;;;;17.58;41.05;99743.00;2088136;83;21221;-76
2021/04/21 12:52:51;;;;;;;8.13;4.60;;;;;;;17.72;40.95;99739.66;2084844;83;21074;-75
2021/04/21 12:56:08;;;;;;;8.40;4.50;;;;;;;17.89;40.61;99733.50;2086315;83;21216;-76
2021/04/21 12:59:19;;;;;;;13.05;5.22;;;;;;;18.08;41.21;99732.17;2089513;83;21192;-75
2021/04/21 13:02:47;;;;;;;7.55;4.87;;;;;;;18.13;39.53;99733.63;2093259;83;21227;-75
2021/04/21 13:05:52;;;;;;;7.85;5.00;;;;;;;18.18;39.49;99719.02;2089679;83;21146;-78
2021/04/21 13:08:59;;;;;;;8.15;5.28;;;;;;;18.18;40.55;99720.88;2089900;83;21164;-77
2021/04/21 13:12:02;;;;;;;10.48;5.40;;;;;;;18.19;39.80;99717.98;2086484;83;21160;-76
2021/04/21 13:15:14;;;;;;;8.70;5.35;;;;;;;18.25;39.79;99724.31;2088707;83;21532;-75
2021/04/21 13:18:17;;;;;;;9.58;5.70;;;;;;;18.04;40.09;99733.12;2085286;83;21141;-76
2021/04/21 13:21:18;;;;;;;7.20;5.15;;;;;;;17.69;40.03;99726.98;2088141;83;21208;-74
2021/04/21 13:24:21;;;;;;;9.25;4.80;;;;;;;17.40;40.84;99732.55;2091320;83;21224;-75
2021/04/21 13:27:35;;;;;;;6.67;3.98;;;;;;;17.10;40.62;99732.39;2102928;82;21357;-75
2021/04/21 13:30:37;;;;;;;8.58;4.92;;;;;;;16.87;40.00;99732.17;2112135;82;21211;-75
2021/04/21 13:33:40;;;;;;;11.33;4.42;;;;;;;16.99;40.26;99728.55;2116770;82;21116;-75
2021/04/21 13:36:43;;;;;;;11.18;4.10;;;;;;;17.13;39.91;99719.07;2117027;82;21193;-74
2021/04/21 13:40:16;;;;;;;8.03;4.17;;;;;;;17.26;40.30;99718.97;2119734;82;21097;-75
2021/04/21 13:43:19;;;;;;;9.95;4.15;;;;;;;17.29;39.63;99722.55;2118683;82;21176;-75
2021/04/21 13:46:20;;;;;;;11.88;5.03;;;;;;;17.23;39.27;99720.72;2115312;82;21183;-75
2021/04/21 13:49:24;;;;;;;8.00;4.85;;;;;;;17.19;39.79;99718.19;2116556;82;21176;-75
2021/04/21 13:52:25;;;;;;;13.08;5.65;;;;;;;17.21;39.64;99716.12;2118416;82;21180;-76
2021/04/21 13:55:26;;;;;;;7.75;4.90;;;;;;;17.29;40.58;99721.70;2113946;82;21101;-75
2021/04/21 13:58:30;;;;;;;11.90;5.53;;;;;;;17.31;40.77;99711.05;2114558;82;21530;-75
2021/04/21 14:01:34;;;;;;;9.35;4.92;;;;;;;17.30;40.10;99721.49;2119467;82;21112;-75
2021/04/21 14:04:37;;;;;;;7.83;5.05;;;;;;;17.34;40.43;99710.61;2117595;82;21089;-75
2021/04/21 14:07:39;;;;;;;11.80;5.75;;;;;;;17.41;40.07;99715.41;2117743;82;21118;-73
2021/04/21 14:10:40;;;;;;;6.60;4.10;;;;;;;17.43;40.57;99717.36;2115834;82;21233;-73
2021/04/21 14:13:42;;;;;;;6.28;4.00;;;;;;;17.46;39.97;99703.50;2109967;82;21108;-72
2021/04/21 14:16:44;;;;;;;6.65;4.62;;;;;;;17.41;39.41;99703.86;2119029;82;21604;-73
2021/04/21 14:19:46;;;;;;;7.55;4.50;;;;;;;17.41;39.40;99710.05;2118214;82;21208;-73
2021/04/21 14:22:48;;;;;;;4.92;4.30;;;;;;;17.35;39.99;99697.52;2119086;82;21167;-74
2021/04/21 14:25:50;;;;;;;9.28;4.10;;;;;;;17.36;39.22;99699.16;2111365;82;21160;-73
2021/04/21 14:28:53;;;;;;;8.70;4.60;;;;;;;17.31;38.85;99693.63;2125915;82;21167;-75
2021/04/21 14:31:54;;;;;;;11.18;4.58;;;;;;;17.35;39.91;99695.37;2123591;82;21177;-74
2021/04/21 14:34:56;;;;;;;6.30;4.03;;;;;;;17.36;39.86;99693.79;2128513;82;21127;-74
2021/04/21 14:37:58;;;;;;;6.65;4.30;;;;;;;17.36;39.31;99689.77;2129685;82;21617;-76